sensor_id;sensor_type;location;lat;lon;timestamp;pressure;altitude;pressure_sealevel;temperature;humidity
72124;BME280;63818;37.134;-8.548;2023-06-26T00:01:10;101207.7;;;31.7;39.7
72124;BME280;63818;37.134;-8.548;2023-06-26T00:05:57;101205.5;;;31.6;39.4
72124;BME280;63818;37.134;-8.548;2023-06-26T00:10:43;101208.7;;;31.6;39.5
72124;BME280;63818;37.134;-8.548;2023-06-26T00:15:29;101202.3;;;31.6;39.3
72124;BME280;63818;37.134;-8.548;2023-06-26T00:20:15;101205.1;;;31.6;38.7
72124;BME280;63818;37.134;-8.548;2023-06-26T00:25:01;101192.4;;;31.6;38.7
72124;BME280;63818;37.134;-8.548;2023-06-26T00:29:47;101194.9;;;31.6;38.3
72124;BME280;63818;37.134;-8.548;2023-06-26T00:34:33;101196.1;;;31.6;37.7
72124;BME280;63818;37.134;-8.548;2023-06-26T00:39:19;101190.5;;;31.6;37.3
72124;BME280;63818;37.134;-8.548;2023-06-26T00:44:06;101185.8;;;31.6;37.2
72124;BME280;63818;37.134;-8.548;2023-06-26T00:48:52;101180.6;;;31.5;37.2
72124;BME280;63818;37.134;-8.548;2023-06-26T00:53:42;101183.4;;;31.5;37.3
72124;BME280;63818;37.134;-8.548;2023-06-26T00:58:29;101184.6;;;31.5;36.9
72124;BME280;63818;37.134;-8.548;2023-06-26T01:03:15;101172.7;;;31.5;36.7
72124;BME280;63818;37.134;-8.548;2023-06-26T01:08:01;101165.2;;;31.5;36.6
72124;BME280;63818;37.134;-8.548;2023-06-26T01:12:48;101166.4;;;31.5;36.7
72124;BME280;63818;37.134;-8.548;2023-06-26T01:17:36;101161.3;;;31.5;36.4
72124;BME280;63818;37.134;-8.548;2023-06-26T01:22:31;101166.1;;;31.5;36.5
72124;BME280;63818;37.134;-8.548;2023-06-26T01:27:21;101166.1;;;31.5;36.2
72124;BME280;63818;37.134;-8.548;2023-06-26T01:32:08;101152.6;;;31.5;36.0
72124;BME280;63818;37.134;-8.548;2023-06-26T01:36:56;101145.1;;;31.5;35.4
72124;BME280;63818;37.134;-8.548;2023-06-26T01:41:42;101142.0;;;31.5;34.7
72124;BME280;63818;37.134;-8.548;2023-06-26T01:46:35;101136.1;;;31.4;34.6
72124;BME280;63818;37.134;-8.548;2023-06-26T01:51:28;101136.6;;;31.4;34.0
72124;BME280;63818;37.134;-8.548;2023-06-26T01:56:16;101134.6;;;31.4;34.1
72124;BME280;63818;37.134;-8.548;2023-06-26T02:01:03;101123.9;;;31.4;33.3
72124;BME280;63818;37.134;-8.548;2023-06-26T02:05:49;101122.0;;;31.4;32.9
72124;BME280;63818;37.134;-8.548;2023-06-26T02:10:35;101124.8;;;31.4;32.7
72124;BME280;63818;37.134;-8.548;2023-06-26T02:15:21;101117.7;;;31.4;32.1
72124;BME280;63818;37.134;-8.548;2023-06-26T02:20:08;101114.1;;;31.4;31.9
72124;BME280;63818;37.134;-8.548;2023-06-26T02:24:54;101114.6;;;31.3;31.5
72124;BME280;63818;37.134;-8.548;2023-06-26T02:29:40;101104.7;;;31.3;31.1
72124;BME280;63818;37.134;-8.548;2023-06-26T02:34:26;101110.2;;;31.3;30.4
72124;BME280;63818;37.134;-8.548;2023-06-26T02:39:13;101096.0;;;31.3;30.1
72124;BME280;63818;37.134;-8.548;2023-06-26T02:43:59;101102.8;;;31.3;29.7
72124;BME280;63818;37.134;-8.548;2023-06-26T02:48:45;101100.0;;;31.3;29.7
72124;BME280;63818;37.134;-8.548;2023-06-26T02:53:31;101093.3;;;31.3;28.9
72124;BME280;63818;37.134;-8.548;2023-06-26T02:58:17;101089.0;;;31.3;28.9
72124;BME280;63818;37.134;-8.548;2023-06-26T03:03:03;101095.7;;;31.3;29.2
72124;BME280;63818;37.134;-8.548;2023-06-26T03:07:51;101091.0;;;31.3;29.6
72124;BME280;63818;37.134;-8.548;2023-06-26T03:12:37;101096.1;;;31.3;30.3
72124;BME280;63818;37.134;-8.548;2023-06-26T03:17:23;101088.6;;;31.3;30.9
72124;BME280;63818;37.134;-8.548;2023-06-26T03:22:09;101097.8;;;31.2;30.9
72124;BME280;63818;37.134;-8.548;2023-06-26T03:26:55;101095.6;;;31.2;30.5
72124;BME280;63818;37.134;-8.548;2023-06-26T03:31:41;101100.3;;;31.1;30.5
72124;BME280;63818;37.134;-8.548;2023-06-26T03:36:27;101093.1;;;31.1;30.3
72124;BME280;63818;37.134;-8.548;2023-06-26T03:41:15;101081.2;;;31.1;30.2
72124;BME280;63818;37.134;-8.548;2023-06-26T03:46:01;101084.0;;;31.0;30.0
72124;BME280;63818;37.134;-8.548;2023-06-26T03:50:47;101089.2;;;31.1;30.2
72124;BME280;63818;37.134;-8.548;2023-06-26T03:55:33;101091.9;;;31.1;30.1
72124;BME280;63818;37.134;-8.548;2023-06-26T04:00:19;101089.6;;;31.0;29.3
72124;BME280;63818;37.134;-8.548;2023-06-26T04:05:05;101088.4;;;31.1;30.0
72124;BME280;63818;37.134;-8.548;2023-06-26T04:09:51;101089.9;;;31.1;29.6
72124;BME280;63818;37.134;-8.548;2023-06-26T04:14:37;101096.7;;;31.1;29.6
72124;BME280;63818;37.134;-8.548;2023-06-26T04:19:23;101104.8;;;31.0;29.9
72124;BME280;63818;37.134;-8.548;2023-06-26T04:24:09;101113.7;;;30.9;29.6
72124;BME280;63818;37.134;-8.548;2023-06-26T04:28:55;101118.8;;;30.9;29.7
72124;BME280;63818;37.134;-8.548;2023-06-26T04:33:41;101118.0;;;30.9;29.4
72124;BME280;63818;37.134;-8.548;2023-06-26T04:38:27;101115.3;;;30.9;29.1
72124;BME280;63818;37.134;-8.548;2023-06-26T04:43:16;101114.7;;;30.9;29.4
72124;BME280;63818;37.134;-8.548;2023-06-26T04:48:02;101108.4;;;30.8;28.9
72124;BME280;63818;37.134;-8.548;2023-06-26T04:52:48;101106.6;;;30.8;28.6
72124;BME280;63818;37.134;-8.548;2023-06-26T04:57:34;101109.4;;;30.8;28.3
72124;BME280;63818;37.134;-8.548;2023-06-26T05:02:20;101104.4;;;30.7;28.6
72124;BME280;63818;37.134;-8.548;2023-06-26T05:07:06;101107.2;;;30.7;28.8
72124;BME280;63818;37.134;-8.548;2023-06-26T05:11:52;101121.5;;;30.7;28.5
72124;BME280;63818;37.134;-8.548;2023-06-26T05:16:40;101124.4;;;30.6;28.6
72124;BME280;63818;37.134;-8.548;2023-06-26T05:21:26;101122.3;;;30.5;29.0
72124;BME280;63818;37.134;-8.548;2023-06-26T05:26:13;101120.5;;;30.6;28.9
72124;BME280;63818;37.134;-8.548;2023-06-26T05:30:59;101128.3;;;30.6;29.4
72124;BME280;63818;37.134;-8.548;2023-06-26T05:35:46;101135.1;;;30.6;29.4
72124;BME280;63818;37.134;-8.548;2023-06-26T05:40:32;101145.2;;;30.5;29.4
72124;BME280;63818;37.134;-8.548;2023-06-26T05:45:19;101154.5;;;30.5;29.7
72124;BME280;63818;37.134;-8.548;2023-06-26T05:50:08;101160.8;;;30.5;30.3
72124;BME280;63818;37.134;-8.548;2023-06-26T05:54:57;101161.5;;;30.5;30.3
72124;BME280;63818;37.134;-8.548;2023-06-26T05:59:44;101148.1;;;30.5;30.7
72124;BME280;63818;37.134;-8.548;2023-06-26T06:04:30;101160.0;;;30.5;31.1
72124;BME280;63818;37.134;-8.548;2023-06-26T06:09:16;101163.2;;;30.5;31.5
72124;BME280;63818;37.134;-8.548;2023-06-26T06:14:03;101180.2;;;30.5;31.3
72124;BME280;63818;37.134;-8.548;2023-06-26T06:18:49;101177.3;;;30.5;31.8
72124;BME280;63818;37.134;-8.548;2023-06-26T06:23:35;101182.0;;;30.6;31.7
72124;BME280;63818;37.134;-8.548;2023-06-26T06:28:22;101177.2;;;30.6;31.6
72124;BME280;63818;37.134;-8.548;2023-06-26T06:33:08;101179.1;;;30.6;31.5
72124;BME280;63818;37.134;-8.548;2023-06-26T06:37:54;101190.5;;;30.7;31.6
72124;BME280;63818;37.134;-8.548;2023-06-26T06:42:40;101212.0;;;30.6;31.5
72124;BME280;63818;37.134;-8.548;2023-06-26T06:47:26;101217.9;;;30.6;32.2
72124;BME280;63818;37.134;-8.548;2023-06-26T06:52:12;101232.0;;;30.5;32.5
72124;BME280;63818;37.134;-8.548;2023-06-26T06:56:58;101222.8;;;30.4;33.1
72124;BME280;63818;37.134;-8.548;2023-06-26T07:01:47;101222.4;;;30.4;33.1
72124;BME280;63818;37.134;-8.548;2023-06-26T07:06:33;101223.9;;;30.4;33.5
72124;BME280;63818;37.134;-8.548;2023-06-26T07:11:19;101232.2;;;30.4;33.6
72124;BME280;63818;37.134;-8.548;2023-06-26T07:16:04;101228.7;;;30.4;33.6
72124;BME280;63818;37.134;-8.548;2023-06-26T07:20:50;101234.1;;;30.5;34.0
72124;BME280;63818;37.134;-8.548;2023-06-26T07:25:36;101242.0;;;30.5;34.1
72124;BME280;63818;37.134;-8.548;2023-06-26T07:30:23;101238.8;;;30.5;34.2
72124;BME280;63818;37.134;-8.548;2023-06-26T07:35:09;101232.0;;;30.5;33.8
72124;BME280;63818;37.134;-8.548;2023-06-26T07:39:55;101237.5;;;30.6;33.9
72124;BME280;63818;37.134;-8.548;2023-06-26T07:44:41;101241.4;;;30.6;33.2
72124;BME280;63818;37.134;-8.548;2023-06-26T07:49:27;101231.9;;;30.6;32.7
72124;BME280;63818;37.134;-8.548;2023-06-26T07:54:13;101237.7;;;30.6;32.7
72124;BME280;63818;37.134;-8.548;2023-06-26T07:59:01;101231.4;;;30.6;31.9
72124;BME280;63818;37.134;-8.548;2023-06-26T08:03:47;101234.9;;;30.7;32.2
72124;BME280;63818;37.134;-8.548;2023-06-26T08:08:35;101228.8;;;30.7;32.0
72124;BME280;63818;37.134;-8.548;2023-06-26T08:13:21;101232.0;;;30.7;31.6
72124;BME280;63818;37.134;-8.548;2023-06-26T08:18:07;101234.6;;;30.8;31.8
72124;BME280;63818;37.134;-8.548;2023-06-26T08:22:55;101229.1;;;30.8;31.4
72124;BME280;63818;37.134;-8.548;2023-06-26T08:27:41;101220.7;;;30.8;31.4
72124;BME280;63818;37.134;-8.548;2023-06-26T08:32:27;101227.8;;;30.8;30.8
72124;BME280;63818;37.134;-8.548;2023-06-26T08:37:13;101228.1;;;30.8;31.4
72124;BME280;63818;37.134;-8.548;2023-06-26T08:41:59;101241.1;;;30.9;33.0
72124;BME280;63818;37.134;-8.548;2023-06-26T08:46:45;101237.1;;;30.9;32.5
72124;BME280;63818;37.134;-8.548;2023-06-26T08:51:33;101238.1;;;30.8;31.7
72124;BME280;63818;37.134;-8.548;2023-06-26T08:56:22;101237.8;;;30.8;31.3
72124;BME280;63818;37.134;-8.548;2023-06-26T09:01:09;101233.9;;;30.8;30.0
72124;BME280;63818;37.134;-8.548;2023-06-26T09:05:56;101231.9;;;30.8;29.6
72124;BME280;63818;37.134;-8.548;2023-06-26T09:10:44;101250.3;;;30.8;33.3
72124;BME280;63818;37.134;-8.548;2023-06-26T09:15:39;101264.5;;;30.9;36.6
72124;BME280;63818;37.134;-8.548;2023-06-26T09:20:29;101261.9;;;30.8;34.8
72124;BME280;63818;37.134;-8.548;2023-06-26T09:25:16;101255.2;;;30.8;34.2
72124;BME280;63818;37.134;-8.548;2023-06-26T09:30:03;101269.6;;;30.7;35.4
72124;BME280;63818;37.134;-8.548;2023-06-26T09:34:54;101269.8;;;30.7;35.2
72124;BME280;63818;37.134;-8.548;2023-06-26T09:39:40;101266.2;;;30.7;34.0
72124;BME280;63818;37.134;-8.548;2023-06-26T09:44:26;101271.7;;;30.7;35.4
72124;BME280;63818;37.134;-8.548;2023-06-26T09:49:12;101261.8;;;30.7;34.2
72124;BME280;63818;37.134;-8.548;2023-06-26T09:53:59;101268.0;;;30.7;35.2
72124;BME280;63818;37.134;-8.548;2023-06-26T09:58:44;101280.2;;;30.8;36.1
72124;BME280;63818;37.134;-8.548;2023-06-26T10:03:33;101283.5;;;30.7;35.9
72124;BME280;63818;37.134;-8.548;2023-06-26T10:08:20;101294.6;;;30.7;36.8
72124;BME280;63818;37.134;-8.548;2023-06-26T10:13:11;101272.9;;;30.7;35.0
72124;BME280;63818;37.134;-8.548;2023-06-26T10:17:58;101274.9;;;30.7;35.4
72124;BME280;63818;37.134;-8.548;2023-06-26T10:22:46;101276.5;;;30.7;36.0
72124;BME280;63818;37.134;-8.548;2023-06-26T10:27:35;101284.4;;;30.7;36.5
72124;BME280;63818;37.134;-8.548;2023-06-26T10:32:25;101286.8;;;30.7;36.2
72124;BME280;63818;37.134;-8.548;2023-06-26T10:37:12;101278.9;;;30.6;36.6
72124;BME280;63818;37.134;-8.548;2023-06-26T10:42:09;101283.4;;;30.6;35.3
72124;BME280;63818;37.134;-8.548;2023-06-26T10:46:56;101286.1;;;30.6;35.2
72124;BME280;63818;37.134;-8.548;2023-06-26T10:51:46;101286.1;;;30.6;34.5
72124;BME280;63818;37.134;-8.548;2023-06-26T10:56:46;101283.4;;;30.6;34.3
72124;BME280;63818;37.134;-8.548;2023-06-26T11:01:42;101279.4;;;30.6;33.8
72124;BME280;63818;37.134;-8.548;2023-06-26T11:06:29;101289.2;;;30.6;34.0
72124;BME280;63818;37.134;-8.548;2023-06-26T11:11:16;101288.5;;;30.6;33.3
72124;BME280;63818;37.134;-8.548;2023-06-26T11:16:02;101290.4;;;30.7;33.5
72124;BME280;63818;37.134;-8.548;2023-06-26T11:20:48;101301.4;;;30.7;33.6
72124;BME280;63818;37.134;-8.548;2023-06-26T11:25:36;101308.2;;;30.6;34.0
72124;BME280;63818;37.134;-8.548;2023-06-26T11:30:26;101307.9;;;30.6;34.3
72124;BME280;63818;37.134;-8.548;2023-06-26T11:35:14;101300.1;;;30.6;34.2
72124;BME280;63818;37.134;-8.548;2023-06-26T11:40:18;101300.0;;;30.6;34.8
72124;BME280;63818;37.134;-8.548;2023-06-26T11:45:04;101298.4;;;30.6;34.2
72124;BME280;63818;37.134;-8.548;2023-06-26T11:49:50;101301.8;;;30.7;34.1
72124;BME280;63818;37.134;-8.548;2023-06-26T11:54:36;101301.3;;;30.7;34.5
72124;BME280;63818;37.134;-8.548;2023-06-26T11:59:23;101307.9;;;30.8;34.2
72124;BME280;63818;37.134;-8.548;2023-06-26T12:04:11;101302.3;;;30.8;34.0
72124;BME280;63818;37.134;-8.548;2023-06-26T12:09:01;101310.6;;;30.8;34.4
72124;BME280;63818;37.134;-8.548;2023-06-26T12:13:51;101307.8;;;30.8;34.1
72124;BME280;63818;37.134;-8.548;2023-06-26T12:18:38;101305.6;;;30.8;34.0
72124;BME280;63818;37.134;-8.548;2023-06-26T12:23:35;101304.8;;;30.8;33.6
72124;BME280;63818;37.134;-8.548;2023-06-26T12:28:29;101296.8;;;30.8;33.7
72124;BME280;63818;37.134;-8.548;2023-06-26T12:33:17;101290.4;;;30.8;33.1
72124;BME280;63818;37.134;-8.548;2023-06-26T12:38:07;101294.6;;;30.9;32.7
72124;BME280;63818;37.134;-8.548;2023-06-26T12:42:55;101286.2;;;30.9;32.9
72124;BME280;63818;37.134;-8.548;2023-06-26T12:47:41;101286.2;;;30.9;32.8
72124;BME280;63818;37.134;-8.548;2023-06-26T12:52:30;101287.7;;;31.0;32.0
72124;BME280;63818;37.134;-8.548;2023-06-26T12:57:16;101288.5;;;31.0;31.8
72124;BME280;63818;37.134;-8.548;2023-06-26T13:02:02;101281.8;;;31.0;31.6
72124;BME280;63818;37.134;-8.548;2023-06-26T13:06:52;101299.5;;;31.0;31.9
72124;BME280;63818;37.134;-8.548;2023-06-26T13:11:38;101285.6;;;31.0;31.6
72124;BME280;63818;37.134;-8.548;2023-06-26T13:16:26;101285.9;;;31.0;31.7
72124;BME280;63818;37.134;-8.548;2023-06-26T13:21:12;101269.6;;;31.1;31.5
72124;BME280;63818;37.134;-8.548;2023-06-26T13:26:04;101269.9;;;31.1;31.5
72124;BME280;63818;37.134;-8.548;2023-06-26T13:30:53;101266.7;;;31.1;31.4
72124;BME280;63818;37.134;-8.548;2023-06-26T13:35:39;101267.0;;;31.2;31.3
72124;BME280;63818;37.134;-8.548;2023-06-26T13:40:27;101251.8;;;31.2;30.7
72124;BME280;63818;37.134;-8.548;2023-06-26T13:45:15;101243.6;;;31.3;30.5
72124;BME280;63818;37.134;-8.548;2023-06-26T13:50:02;101241.9;;;31.4;30.1
72124;BME280;63818;37.134;-8.548;2023-06-26T13:54:48;101230.3;;;31.4;29.5
72124;BME280;63818;37.134;-8.548;2023-06-26T13:59:39;101234.3;;;31.4;29.2
72124;BME280;63818;37.134;-8.548;2023-06-26T14:09:19;101222.4;;;31.5;30.4
72124;BME280;63818;37.134;-8.548;2023-06-26T14:14:04;101227.9;;;31.5;30.3
72124;BME280;63818;37.134;-8.548;2023-06-26T14:18:50;101237.8;;;31.6;31.1
72124;BME280;63818;37.134;-8.548;2023-06-26T14:23:39;101221.5;;;31.5;31.4
72124;BME280;63818;37.134;-8.548;2023-06-26T14:28:26;101228.6;;;31.6;31.0
72124;BME280;63818;37.134;-8.548;2023-06-26T14:33:16;101215.5;;;31.6;31.6
72124;BME280;63818;37.134;-8.548;2023-06-26T14:38:05;101220.5;;;31.6;32.1
72124;BME280;63818;37.134;-8.548;2023-06-26T14:42:53;101201.0;;;31.6;31.6
72124;BME280;63818;37.134;-8.548;2023-06-26T14:47:39;101199.6;;;31.7;32.4
72124;BME280;63818;37.134;-8.548;2023-06-26T14:52:25;101198.3;;;31.8;33.8
72124;BME280;63818;37.134;-8.548;2023-06-26T14:57:11;101208.2;;;31.8;35.8
72124;BME280;63818;37.134;-8.548;2023-06-26T15:01:59;101210.5;;;31.8;36.5
72124;BME280;63818;37.134;-8.548;2023-06-26T15:06:45;101197.3;;;31.8;36.8
72124;BME280;63818;37.134;-8.548;2023-06-26T15:11:31;101192.5;;;31.9;36.5
72124;BME280;63818;37.134;-8.548;2023-06-26T15:16:19;101187.7;;;31.9;35.8
72124;BME280;63818;37.134;-8.548;2023-06-26T15:21:05;101190.7;;;31.9;35.1
72124;BME280;63818;37.134;-8.548;2023-06-26T15:25:51;101179.8;;;32.0;34.9
72124;BME280;63818;37.134;-8.548;2023-06-26T15:30:37;101173.0;;;32.0;34.4
72124;BME280;63818;37.134;-8.548;2023-06-26T15:35:23;101165.3;;;32.0;34.8
72124;BME280;63818;37.134;-8.548;2023-06-26T15:40:13;101160.5;;;32.1;34.6
72124;BME280;63818;37.134;-8.548;2023-06-26T15:44:59;101151.1;;;32.1;33.6
72124;BME280;63818;37.134;-8.548;2023-06-26T15:49:45;101138.8;;;32.3;31.8
72124;BME280;63818;37.134;-8.548;2023-06-26T15:54:31;101129.1;;;32.3;29.1
72124;BME280;63818;37.134;-8.548;2023-06-26T15:59:17;101104.5;;;32.5;27.7
72124;BME280;63818;37.134;-8.548;2023-06-26T16:04:06;101117.0;;;32.8;27.4
72124;BME280;63818;37.134;-8.548;2023-06-26T16:08:51;101136.2;;;33.0;26.7
72124;BME280;63818;37.134;-8.548;2023-06-26T16:13:37;101121.1;;;33.3;26.1
72124;BME280;63818;37.134;-8.548;2023-06-26T16:18:26;101111.2;;;33.5;25.4
72124;BME280;63818;37.134;-8.548;2023-06-26T16:23:13;101098.2;;;33.5;25.1
72124;BME280;63818;37.134;-8.548;2023-06-26T16:27:59;101085.7;;;33.6;24.2
72124;BME280;63818;37.134;-8.548;2023-06-26T16:32:45;101106.2;;;33.6;25.4
72124;BME280;63818;37.134;-8.548;2023-06-26T16:37:31;101098.2;;;33.8;25.8
72124;BME280;63818;37.134;-8.548;2023-06-26T16:42:16;101105.8;;;33.8;26.3
72124;BME280;63818;37.134;-8.548;2023-06-26T16:47:05;101096.1;;;33.7;27.5
72124;BME280;63818;37.134;-8.548;2023-06-26T16:51:52;101090.1;;;33.5;27.3
72124;BME280;63818;37.134;-8.548;2023-06-26T16:56:38;101099.9;;;33.5;27.4
72124;BME280;63818;37.134;-8.548;2023-06-26T17:01:23;101101.6;;;33.6;27.9
72124;BME280;63818;37.134;-8.548;2023-06-26T17:06:10;101086.1;;;33.6;28.6
72124;BME280;63818;37.134;-8.548;2023-06-26T17:10:56;101099.3;;;33.6;28.5
72124;BME280;63818;37.134;-8.548;2023-06-26T17:15:42;101090.6;;;33.5;28.7
72124;BME280;63818;37.134;-8.548;2023-06-26T17:20:28;101076.8;;;33.5;28.9
72124;BME280;63818;37.134;-8.548;2023-06-26T17:25:14;101066.6;;;33.5;29.3
72124;BME280;63818;37.134;-8.548;2023-06-26T17:30:01;101065.2;;;33.5;28.9
72124;BME280;63818;37.134;-8.548;2023-06-26T17:34:47;101060.5;;;33.5;28.2
72124;BME280;63818;37.134;-8.548;2023-06-26T17:39:33;101057.5;;;33.5;29.1
72124;BME280;63818;37.134;-8.548;2023-06-26T17:44:19;101061.8;;;33.5;29.6
72124;BME280;63818;37.134;-8.548;2023-06-26T17:49:05;101055.7;;;33.5;28.8
72124;BME280;63818;37.134;-8.548;2023-06-26T17:53:50;101059.0;;;33.5;28.3
72124;BME280;63818;37.134;-8.548;2023-06-26T17:58:36;101060.1;;;33.5;27.6
72124;BME280;63818;37.134;-8.548;2023-06-26T18:03:22;101048.8;;;33.5;27.0
72124;BME280;63818;37.134;-8.548;2023-06-26T18:08:10;101052.7;;;33.6;26.7
72124;BME280;63818;37.134;-8.548;2023-06-26T18:12:56;101048.5;;;33.5;27.0
72124;BME280;63818;37.134;-8.548;2023-06-26T18:17:42;101055.6;;;33.5;27.1
72124;BME280;63818;37.134;-8.548;2023-06-26T18:22:28;101034.2;;;33.5;26.5
72124;BME280;63818;37.134;-8.548;2023-06-26T18:27:14;101048.5;;;33.5;27.0
72124;BME280;63818;37.134;-8.548;2023-06-26T18:32:00;101033.9;;;33.5;26.9
72124;BME280;63818;37.134;-8.548;2023-06-26T18:36:46;101048.0;;;33.4;27.0
72124;BME280;63818;37.134;-8.548;2023-06-26T18:41:35;101048.1;;;33.4;26.3
72124;BME280;63818;37.134;-8.548;2023-06-26T18:46:21;101065.4;;;33.4;26.2
72124;BME280;63818;37.134;-8.548;2023-06-26T18:51:08;101040.5;;;33.3;26.7
72124;BME280;63818;37.134;-8.548;2023-06-26T18:55:54;101061.0;;;33.3;26.4
72124;BME280;63818;37.134;-8.548;2023-06-26T19:00:40;101042.9;;;33.2;26.6
72124;BME280;63818;37.134;-8.548;2023-06-26T19:05:26;101044.6;;;33.2;26.5
72124;BME280;63818;37.134;-8.548;2023-06-26T19:10:12;101059.9;;;33.1;26.8
72124;BME280;63818;37.134;-8.548;2023-06-26T19:14:59;101069.2;;;33.1;26.9
72124;BME280;63818;37.134;-8.548;2023-06-26T19:19:45;101066.3;;;33.0;27.1
72124;BME280;63818;37.134;-8.548;2023-06-26T19:24:32;101068.4;;;33.0;26.5
72124;BME280;63818;37.134;-8.548;2023-06-26T19:29:17;101069.0;;;32.9;26.2
72124;BME280;63818;37.134;-8.548;2023-06-26T19:34:03;101076.7;;;32.9;26.0
72124;BME280;63818;37.134;-8.548;2023-06-26T19:38:49;101083.9;;;32.9;25.0
72124;BME280;63818;37.134;-8.548;2023-06-26T19:43:35;101083.3;;;32.8;24.7
72124;BME280;63818;37.134;-8.548;2023-06-26T19:48:22;101077.1;;;32.8;24.5
72124;BME280;63818;37.134;-8.548;2023-06-26T19:53:07;101080.8;;;32.8;24.2
72124;BME280;63818;37.134;-8.548;2023-06-26T19:57:56;101078.9;;;32.7;24.2
72124;BME280;63818;37.134;-8.548;2023-06-26T20:02:42;101084.9;;;32.7;24.3
72124;BME280;63818;37.134;-8.548;2023-06-26T20:07:28;101089.0;;;32.7;24.7
72124;BME280;63818;37.134;-8.548;2023-06-26T20:12:14;101107.4;;;32.6;25.2
72124;BME280;63818;37.134;-8.548;2023-06-26T20:17:00;101107.4;;;32.6;25.7
72124;BME280;63818;37.134;-8.548;2023-06-26T20:21:47;101111.2;;;32.6;26.1
72124;BME280;63818;37.134;-8.548;2023-06-26T20:26:32;101119.2;;;32.5;26.7
72124;BME280;63818;37.134;-8.548;2023-06-26T20:31:18;101115.8;;;32.5;27.1
72124;BME280;63818;37.134;-8.548;2023-06-26T20:36:04;101126.6;;;32.5;27.0
72124;BME280;63818;37.134;-8.548;2023-06-26T20:40:54;101137.4;;;32.5;27.4
72124;BME280;63818;37.134;-8.548;2023-06-26T20:45:40;101133.3;;;32.5;27.0
72124;BME280;63818;37.134;-8.548;2023-06-26T20:50:27;101142.0;;;32.5;27.2
72124;BME280;63818;37.134;-8.548;2023-06-26T20:55:14;101136.9;;;32.5;26.9
72124;BME280;63818;37.134;-8.548;2023-06-26T21:00:01;101132.2;;;32.5;26.6
72124;BME280;63818;37.134;-8.548;2023-06-26T21:04:47;101139.0;;;32.4;26.6
72124;BME280;63818;37.134;-8.548;2023-06-26T21:09:33;101148.3;;;32.4;26.3
72124;BME280;63818;37.134;-8.548;2023-06-26T21:14:19;101150.7;;;32.4;26.3
72124;BME280;63818;37.134;-8.548;2023-06-26T21:19:05;101157.1;;;32.4;26.6
72124;BME280;63818;37.134;-8.548;2023-06-26T21:23:53;101169.8;;;32.4;26.4
72124;BME280;63818;37.134;-8.548;2023-06-26T21:28:39;101167.0;;;32.4;26.2
72124;BME280;63818;37.134;-8.548;2023-06-26T21:33:25;101170.5;;;32.4;26.3
72124;BME280;63818;37.134;-8.548;2023-06-26T21:38:11;101176.4;;;32.4;25.9
72124;BME280;63818;37.134;-8.548;2023-06-26T21:42:57;101180.0;;;32.4;26.3
72124;BME280;63818;37.134;-8.548;2023-06-26T21:47:43;101185.6;;;32.4;25.6
72124;BME280;63818;37.134;-8.548;2023-06-26T21:52:29;101189.1;;;32.4;26.0
72124;BME280;63818;37.134;-8.548;2023-06-26T21:57:15;101185.1;;;32.5;26.3
72124;BME280;63818;37.134;-8.548;2023-06-26T22:02:03;101187.5;;;32.5;26.1
72124;BME280;63818;37.134;-8.548;2023-06-26T22:06:49;101188.7;;;32.5;26.6
72124;BME280;63818;37.134;-8.548;2023-06-26T22:11:35;101191.0;;;32.5;26.5
72124;BME280;63818;37.134;-8.548;2023-06-26T22:16:21;101185.1;;;32.5;26.4
72124;BME280;63818;37.134;-8.548;2023-06-26T22:21:07;101187.1;;;32.5;26.3
72124;BME280;63818;37.134;-8.548;2023-06-26T22:25:53;101178.8;;;32.5;26.5
72124;BME280;63818;37.134;-8.548;2023-06-26T22:30:39;101185.6;;;32.4;26.4
72124;BME280;63818;37.134;-8.548;2023-06-26T22:35:25;101180.9;;;32.4;26.4
72124;BME280;63818;37.134;-8.548;2023-06-26T22:40:12;101184.5;;;32.4;26.6
72124;BME280;63818;37.134;-8.548;2023-06-26T22:44:58;101184.5;;;32.4;26.6
72124;BME280;63818;37.134;-8.548;2023-06-26T22:49:44;101188.9;;;32.4;27.0
72124;BME280;63818;37.134;-8.548;2023-06-26T22:54:30;101188.6;;;32.4;27.5
72124;BME280;63818;37.134;-8.548;2023-06-26T22:59:17;101191.0;;;32.3;27.4
72124;BME280;63818;37.134;-8.548;2023-06-26T23:04:03;101191.9;;;32.3;27.8
72124;BME280;63818;37.134;-8.548;2023-06-26T23:08:49;101183.2;;;32.3;27.6
72124;BME280;63818;37.134;-8.548;2023-06-26T23:13:37;101188.5;;;32.3;27.6
72124;BME280;63818;37.134;-8.548;2023-06-26T23:18:23;101192.1;;;32.2;28.0
72124;BME280;63818;37.134;-8.548;2023-06-26T23:23:09;101189.3;;;32.2;27.9
72124;BME280;63818;37.134;-8.548;2023-06-26T23:27:57;101188.6;;;32.2;28.1
72124;BME280;63818;37.134;-8.548;2023-06-26T23:32:45;101187.5;;;32.2;28.3
72124;BME280;63818;37.134;-8.548;2023-06-26T23:37:33;101179.6;;;32.2;28.3
72124;BME280;63818;37.134;-8.548;2023-06-26T23:42:19;101182.3;;;32.2;28.6
72124;BME280;63818;37.134;-8.548;2023-06-26T23:47:05;101188.8;;;32.2;29.1
72124;BME280;63818;37.134;-8.548;2023-06-26T23:51:52;101188.0;;;32.2;29.1
72124;BME280;63818;37.134;-8.548;2023-06-26T23:56:38;101178.9;;;32.2;29.4
